Time;durP1;ratioP1;P1;durP2;ratioP2;P2;SDS_P1;SDS_P2;PMS_P1;PMS_P2;Temp;Humidity;BMP_temperature;BMP_pressure;BME280_temperature;BME280_humidity;BME280_pressure;Samples;Min_cycle;Max_cycle;Signal;HPM_P1;HPM_P2
2021/05/23 00:00:25;;;;;;;9.87;2.43;;;;;;;14.21;54.28;100834.41;4918155;29;20055;-77
2021/05/23 00:02:54;;;;;;;9.20;2.60;;;;;;;14.15;54.00;100830.00;4918538;29;20072;-74
2021/05/23 00:05:25;;;;;;;9.13;2.60;;;;;;;14.21;54.25;100842.84;4901082;29;20524;-71
2021/05/23 00:07:56;;;;;;;9.43;2.33;;;;;;;14.22;54.18;100856.63;4917382;29;20134;-71
2021/05/23 00:10:26;;;;;;;14.40;3.17;;;;;;;14.24;54.19;100856.28;4917782;29;20133;-76
2021/05/23 00:12:55;;;;;;;6.37;1.83;;;;;;;14.24;54.23;100856.28;4917398;29;20056;-73
2021/05/23 00:15:47;;;;;;;8.60;3.53;;;;;;;14.21;54.39;100856.88;4917248;29;20052;-73
2021/05/23 00:18:14;;;;;;;7.33;3.33;;;;;;;14.21;54.36;100857.72;4912213;29;20151;-76
2021/05/23 00:20:41;;;;;;;4.67;1.87;;;;;;;14.22;54.26;100858.56;4917380;29;20080;-78
2021/05/23 00:23:10;;;;;;;4.37;2.27;;;;;;;14.16;54.15;100837.31;4917407;29;20099;-77
2021/05/23 00:25:38;;;;;;;7.77;1.93;;;;;;;14.19;54.29;100847.94;4918265;29;20456;-77
2021/05/23 00:28:05;;;;;;;6.83;2.17;;;;;;;14.18;54.37;100846.25;4917589;29;20095;-64
2021/05/23 00:30:33;;;;;;;7.10;2.47;;;;;;;14.17;54.43;100838.97;4917844;29;20076;-65
2021/05/23 00:32:59;;;;;;;7.47;2.20;;;;;;;14.04;54.57;100822.81;4917972;29;20075;-65
2021/05/23 00:35:28;;;;;;;8.57;2.30;;;;;;;14.21;54.29;100840.03;4917007;29;20485;-65
2021/05/23 00:37:56;;;;;;;9.50;2.80;;;;;;;14.15;54.24;100824.38;4916480;29;20087;-67
2021/05/23 00:40:23;;;;;;;5.00;2.23;;;;;;;14.10;54.27;100828.09;4916792;29;20493;-67
2021/05/23 00:42:50;;;;;;;6.10;2.10;;;;;;;14.17;54.14;100839.78;4916864;29;20072;-67
2021/05/23 00:45:18;;;;;;;3.53;1.60;;;;;;;14.17;54.13;100824.94;4916729;29;20060;-65
2021/05/23 00:47:46;;;;;;;7.80;2.10;;;;;;;14.14;54.01;100826.34;4916637;29;20086;-65
2021/05/23 00:50:24;;;;;;;7.87;1.60;;;;;;;14.09;53.88;100818.00;4917118;29;20099;-64
2021/05/23 00:52:55;;;;;;;4.87;2.13;;;;;;;13.98;53.93;100791.13;4916641;29;20090;-66
2021/05/23 00:55:23;;;;;;;3.83;2.33;;;;;;;13.97;53.93;100786.66;4916648;29;20084;-63
2021/05/23 00:57:51;;;;;;;7.10;2.43;;;;;;;14.09;53.87;100803.13;4916716;29;20140;-62
2021/05/23 01:00:36;;;;;;;8.70;1.83;;;;;;;14.17;53.85;100799.66;4917022;29;20048;-62
2021/05/23 01:03:03;;;;;;;3.47;2.00;;;;;;;14.20;53.81;100808.31;4916699;29;20144;-67
2021/05/23 01:05:30;;;;;;;9.07;2.50;;;;;;;14.15;53.99;100804.72;4916963;29;20071;-66
2021/05/23 01:07:57;;;;;;;10.93;2.00;;;;;;;14.21;53.80;100806.34;4916355;29;20452;-68
2021/05/23 01:10:26;;;;;;;11.57;2.50;;;;;;;14.22;53.88;100805.19;4916494;29;20102;-68
2021/05/23 01:13:04;;;;;;;6.37;2.03;;;;;;;14.22;53.82;100805.19;4916558;29;20056;-67
2021/05/23 01:15:36;;;;;;;3.37;1.50;;;;;;;14.23;53.62;100798.47;4916814;29;20048;-67
2021/05/23 01:18:08;;;;;;;5.43;2.53;;;;;;;14.26;53.71;100792.25;4916453;29;20401;-63
2021/05/23 01:20:49;;;;;;;4.87;2.13;;;;;;;14.03;53.56;100765.81;4916467;29;20139;-64
2021/05/23 01:23:19;;;;;;;8.03;1.37;;;;;;;14.25;53.56;100796.16;4916794;29;20357;-71
2021/05/23 01:25:48;;;;;;;11.48;2.20;;;;;;;14.24;53.56;100797.31;4916488;29;20420;-67
2021/05/23 01:28:17;;;;;;;3.97;1.30;;;;;;;14.11;53.49;100772.75;4916587;29;20100;-67
2021/05/23 01:30:47;;;;;;;3.53;1.60;;;;;;;14.19;53.58;100792.59;4916489;29;20080;-67
2021/05/23 01:33:17;;;;;;;3.67;1.27;;;;;;;14.19;53.56;100791.78;4916633;29;20489;-67
2021/05/23 01:35:50;;;;;;;5.90;2.85;;;;;;;14.12;53.29;100782.84;4916297;29;20087;-66
2021/05/23 01:38:20;;;;;;;7.80;1.40;;;;;;;14.17;53.38;100788.41;4916433;29;20076;-66
2021/05/23 01:40:49;;;;;;;7.88;1.13;;;;;;;14.12;53.33;100774.41;4916381;29;20094;-66
2021/05/23 01:43:16;;;;;;;8.13;1.53;;;;;;;14.17;53.38;100789.25;4916535;29;20080;-66
2021/05/23 01:45:43;;;;;;;5.43;1.80;;;;;;;14.08;53.47;100776.16;4916187;29;20576;-66
2021/05/23 01:48:10;;;;;;;5.80;2.20;;;;;;;14.14;53.75;100792.66;4916036;29;20476;-66
2021/05/23 01:50:38;;;;;;;4.47;1.70;;;;;;;14.12;53.76;100788.47;4918307;29;20060;-66
2021/05/23 01:53:07;;;;;;;7.97;1.37;;;;;;;13.92;53.90;100759.50;4920263;29;20052;-66
2021/05/23 01:55:35;;;;;;;7.37;2.60;;;;;;;14.07;53.95;100780.09;4919879;29;20044;-66
2021/05/23 01:58:03;;;;;;;4.80;1.67;;;;;;;14.04;54.26;100780.69;4903135;29;20120;-67
2021/05/23 02:00:36;;;;;;;2.70;0.90;;;;;;;14.05;54.00;100785.16;4919791;29;20056;-78
2021/05/23 02:03:06;;;;;;;7.53;1.10;;;;;;;14.02;54.07;100771.72;4920173;29;20082;-75
2021/05/23 02:05:44;;;;;;;5.23;1.60;;;;;;;14.06;53.85;100782.09;4920850;29;20104;-74
2021/05/23 02:08:15;;;;;;;5.37;1.40;;;;;;;14.03;53.80;100776.22;4919264;29;20056;-79
2021/05/23 02:10:42;;;;;;;7.90;1.57;;;;;;;13.98;53.89;100780.78;4920109;29;20094;-69
2021/05/23 02:13:09;;;;;;;6.03;1.50;;;;;;;13.97;54.09;100779.06;4919951;29;20048;-77
2021/05/23 02:15:38;;;;;;;3.37;1.70;;;;;;;13.93;54.20;100771.56;4919476;29;20087;-74
2021/05/23 02:18:06;;;;;;;5.43;1.37;;;;;;;13.88;54.44;100775.28;4919554;29;20528;-78
2021/05/23 02:20:34;;;;;;;7.90;1.40;;;;;;;13.84;54.65;100779.78;4919603;29;20086;-78
2021/05/23 02:23:05;;;;;;;4.13;1.47;;;;;;;13.78;54.57;100772.56;4920122;29;20516;-77
2021/05/23 02:25:34;;;;;;;6.67;1.40;;;;;;;13.72;55.01;100776.56;4919437;29;20136;-78
2021/05/23 02:28:06;;;;;;;8.93;1.67;;;;;;;13.60;54.78;100756.47;4919290;29;20086;-72
2021/05/23 02:30:45;;;;;;;3.63;0.97;;;;;;;13.55;54.80;100765.78;4919298;29;20084;-73
2021/05/23 02:33:13;;;;;;;6.77;1.33;;;;;;;13.61;55.07;100775.00;4919176;29;20139;-66
2021/05/23 02:35:44;;;;;;;2.47;1.23;;;;;;;13.43;55.12;100751.28;4919243;29;20056;-66
2021/05/23 02:38:13;;;;;;;3.47;1.40;;;;;;;13.55;55.38;100778.97;4919168;29;20056;-66
2021/05/23 02:40:42;;;;;;;4.87;1.50;;;;;;;13.52;55.33;100775.63;4919047;29;20107;-67
2021/05/23 02:43:10;;;;;;;6.00;1.60;;;;;;;13.49;55.35;100775.38;4919071;29;20048;-67
2021/05/23 02:45:38;;;;;;;6.63;1.63;;;;;;;13.49;55.48;100783.78;4918908;29;20078;-67
2021/05/23 02:48:06;;;;;;;7.77;2.07;;;;;;;13.44;55.48;100775.44;4918767;29;20104;-66
2021/05/23 02:50:36;;;;;;;3.53;1.90;;;;;;;13.42;55.74;100775.72;4919248;29;20075;-67
2021/05/23 02:53:08;;;;;;;6.20;1.55;;;;;;;13.41;55.83;100765.63;4918897;29;20048;-64
2021/05/23 02:55:37;;;;;;;5.63;1.63;;;;;;;13.42;55.58;100772.91;4918837;29;20134;-64
2021/05/23 02:58:06;;;;;;;9.55;2.38;;;;;;;13.42;55.83;100769.25;4918805;29;20560;-65
2021/05/23 03:00:34;;;;;;;4.27;1.70;;;;;;;13.38;55.67;100762.56;4918443;29;20083;-64
2021/05/23 03:03:02;;;;;;;9.97;1.63;;;;;;;13.46;55.91;100773.97;4919058;29;20111;-63
2021/05/23 03:05:29;;;;;;;6.23;1.67;;;;;;;13.49;55.70;100767.78;4918503;29;20536;-64
2021/05/23 03:07:58;;;;;;;7.80;1.90;;;;;;;13.41;55.78;100759.19;4918294;29;20087;-61
2021/05/23 03:10:31;;;;;;;9.03;2.50;;;;;;;13.52;55.79;100767.19;4918442;29;20091;-61
2021/05/23 03:13:03;;;;;;;5.07;2.27;;;;;;;13.54;55.73;100768.84;4918725;29;20063;-60
2021/05/23 03:15:30;;;;;;;12.03;2.40;;;;;;;13.36;55.98;100750.78;4918879;29;20100;-61
2021/05/23 03:17:58;;;;;;;6.90;1.80;;;;;;;13.44;55.61;100753.00;4918593;29;20143;-63
2021/05/23 03:20:27;;;;;;;8.60;2.33;;;;;;;13.50;55.77;100758.25;4918544;29;20460;-65
2021/05/23 03:22:57;;;;;;;4.00;1.70;;;;;;;13.45;55.67;100754.66;4918609;29;20099;-65
2021/05/23 03:25:26;;;;;;;4.97;1.65;;;;;;;13.36;55.93;100757.25;4918528;29;20056;-70
2021/05/23 03:27:53;;;;;;;4.87;1.70;;;;;;;13.33;55.97;100757.81;4918237;29;20511;-73
2021/05/23 03:30:27;;;;;;;5.40;1.90;;;;;;;13.25;56.13;100752.88;4918152;29;20474;-78
2021/05/23 03:32:54;;;;;;;6.00;2.20;;;;;;;13.09;56.68;100732.47;4918037;29;20134;-76
2021/05/23 03:35:21;;;;;;;5.67;1.80;;;;;;;13.17;56.52;100756.28;4918037;29;20446;-71
2021/05/23 03:37:48;;;;;;;4.57;1.87;;;;;;;13.02;56.82;100741.25;4918023;29;20511;-67
2021/05/23 03:40:17;;;;;;;7.57;2.03;;;;;;;13.01;57.00;100745.16;4918082;29;20509;-67
2021/05/23 03:42:45;;;;;;;4.47;1.87;;;;;;;12.95;57.19;100748.28;4917793;29;20083;-67
2021/05/23 03:45:14;;;;;;;6.17;3.23;;;;;;;12.90;57.37;100752.00;4917774;29;20140;-67
2021/05/23 03:47:41;;;;;;;6.33;2.33;;;;;;;12.89;57.27;100753.13;4917761;29;20413;-66
2021/05/23 03:50:10;;;;;;;7.23;2.30;;;;;;;12.72;57.31;100724.66;4917911;29;20063;-67
2021/05/23 03:52:37;;;;;;;5.97;2.10;;;;;;;12.64;57.34;100728.06;4917737;29;20135;-68
2021/05/23 03:55:06;;;;;;;6.70;1.87;;;;;;;12.72;57.56;100738.69;4917688;29;20090;-74
2021/05/23 03:57:33;;;;;;;4.37;2.03;;;;;;;12.80;57.45;100749.25;4917695;29;20544;-64
2021/05/23 04:00:00;;;;;;;7.67;2.20;;;;;;;12.86;57.54;100750.06;4918216;29;20075;-64
2021/05/23 04:02:27;;;;;;;8.63;1.90;;;;;;;12.89;57.26;100757.88;4917544;29;20052;-64
2021/05/23 04:04:57;;;;;;;9.07;1.93;;;;;;;12.84;57.23;100750.34;4917517;29;20048;-64
2021/05/23 04:07:26;;;;;;;4.65;2.20;;;;;;;12.91;57.23;100759.25;4917435;29;20059;-63
2021/05/23 04:09:55;;;;;;;8.30;1.85;;;;;;;12.95;57.04;100759.50;4917236;29;20048;-64
2021/05/23 04:12:33;;;;;;;3.63;1.33;;;;;;;12.96;57.07;100750.81;4916751;29;20111;-65
2021/05/23 04:15:00;;;;;;;5.80;1.80;;;;;;;12.90;57.06;100749.19;4917695;29;20087;-64
2021/05/23 04:17:28;;;;;;;6.57;2.10;;;;;;;12.95;57.14;100765.94;4917508;29;20393;-65
2021/05/23 04:19:56;;;;;;;6.40;2.03;;;;;;;12.96;57.28;100761.22;4917282;29;20493;-64
2021/05/23 04:22:23;;;;;;;11.13;2.60;;;;;;;12.95;57.10;100760.34;4917196;29;20052;-67
2021/05/23 04:24:50;;;;;;;7.63;2.17;;;;;;;12.97;57.18;100766.50;4917204;29;20080;-67
2021/05/23 04:27:17;;;;;;;4.30;1.67;;;;;;;12.94;57.00;100772.69;4917137;29;20084;-67
2021/05/23 04:29:44;;;;;;;5.13;1.77;;;;;;;12.89;57.28;100775.56;4917338;29;20052;-68
2021/05/23 04:32:11;;;;;;;6.47;1.60;;;;;;;12.69;57.40;100759.69;4917086;29;20048;-68
2021/05/23 04:34:38;;;;;;;4.10;2.13;;;;;;;12.34;57.34;100707.50;4916825;29;20103;-68
2021/05/23 04:37:06;;;;;;;5.87;2.20;;;;;;;12.71;57.31;100787.41;4916865;29;20080;-69
2021/05/23 04:39:34;;;;;;;3.47;1.80;;;;;;;12.66;57.50;100781.84;4900849;29;20469;-69
2021/05/23 04:42:01;;;;;;;7.37;2.40;;;;;;;12.42;57.60;100762.94;4916942;29;20083;-63
2021/05/23 04:44:48;;;;;;;5.57;2.27;;;;;;;12.54;57.80;100791.41;4916851;29;20079;-68
2021/05/23 04:47:16;;;;;;;7.17;2.27;;;;;;;12.37;58.03;100767.72;4917206;29;20503;-67
2021/05/23 04:49:44;;;;;;;4.77;2.23;;;;;;;12.43;58.32;100787.00;4916812;29;20083;-67
2021/05/23 04:52:13;;;;;;;7.57;2.60;;;;;;;12.36;58.34;100792.09;4916752;29;20493;-66
2021/05/23 04:54:41;;;;;;;5.45;2.20;;;;;;;12.36;58.08;100794.88;4916756;29;20075;-66
2021/05/23 04:57:08;;;;;;;6.37;2.27;;;;;;;12.36;58.24;100792.09;4916796;29;20084;-67
2021/05/23 04:59:35;;;;;;;10.63;2.17;;;;;;;12.28;58.42;100798.28;4916746;29;20056;-69
2021/05/23 05:02:03;;;;;;;8.10;2.30;;;;;;;12.21;58.48;100793.00;4916940;29;20443;-62
2021/05/23 05:04:30;;;;;;;7.17;2.70;;;;;;;12.26;58.52;100803.31;4916866;29;20511;-61
2021/05/23 05:06:57;;;;;;;6.97;2.60;;;;;;;12.17;58.50;100802.22;4916802;29;20123;-74
2021/05/23 05:09:25;;;;;;;4.27;2.47;;;;;;;12.06;58.63;100790.22;4916428;29;20072;-68
2021/05/23 05:11:52;;;;;;;7.27;2.50;;;;;;;11.93;58.79;100774.91;4916515;29;20056;-63
2021/05/23 05:14:19;;;;;;;7.87;2.37;;;;;;;12.17;59.05;100813.41;4916881;29;20044;-78
2021/05/23 05:16:46;;;;;;;6.87;3.10;;;;;;;12.16;59.03;100800.56;4916408;29;20533;-64
2021/05/23 05:19:13;;;;;;;4.20;2.17;;;;;;;12.26;59.18;100817.31;4916491;29;20090;-67
2021/05/23 05:21:40;;;;;;;13.00;3.23;;;;;;;12.31;59.12;100814.53;4916316;29;20075;-68
2021/05/23 05:24:08;;;;;;;9.70;2.70;;;;;;;12.22;59.13;100816.22;4917953;29;20076;-67
2021/05/23 05:26:35;;;;;;;7.93;1.67;;;;;;;12.22;58.89;100816.22;4920704;29;20072;-61
2021/05/23 05:29:02;;;;;;;6.10;1.53;;;;;;;12.24;58.98;100816.75;4920640;29;20060;-64
2021/05/23 05:31:30;;;;;;;5.03;2.20;;;;;;;12.28;58.73;100820.69;4920235;29;20052;-68
2021/05/23 05:33:57;;;;;;;4.13;1.87;;;;;;;12.14;59.14;100811.22;4920226;29;20052;-62
2021/05/23 05:36:24;;;;;;;6.70;2.07;;;;;;;12.10;59.44;100824.91;4920439;29;20079;-61
2021/05/23 05:38:51;;;;;;;5.90;1.90;;;;;;;12.14;59.56;100830.81;4920182;29;20087;-61
2021/05/23 05:41:20;;;;;;;8.27;2.37;;;;;;;12.14;59.88;100830.81;4920508;29;20083;-67
2021/05/23 05:43:47;;;;;;;6.77;2.60;;;;;;;12.17;59.84;100821.81;4919915;29;20079;-66
2021/05/23 05:46:14;;;;;;;6.13;1.67;;;;;;;12.16;60.16;100835.00;4920364;29;20079;-66
2021/05/23 05:48:41;;;;;;;3.60;1.57;;;;;;;12.04;59.82;100792.50;4920357;29;20080;-60
2021/05/23 05:51:08;;;;;;;5.30;1.90;;;;;;;12.22;59.77;100807.81;4920197;29;20123;-60
2021/05/23 05:53:35;;;;;;;2.80;1.53;;;;;;;12.32;59.92;100827.38;4919846;29;20100;-60
2021/05/23 05:56:02;;;;;;;4.67;1.67;;;;;;;12.07;60.12;100786.31;4920217;29;20453;-59
2021/05/23 05:58:29;;;;;;;5.73;1.90;;;;;;;12.47;59.91;100844.13;4920348;29;20149;-59
2021/05/23 06:00:56;;;;;;;5.93;2.10;;;;;;;12.55;59.60;100820.31;4919792;29;20091;-56
2021/05/23 06:03:23;;;;;;;5.00;1.90;;;;;;;12.68;59.45;100804.81;4919648;29;20059;-61
2021/05/23 06:05:50;;;;;;;4.50;2.30;;;;;;;13.05;59.20;100835.97;4919759;29;20107;-61
2021/05/23 06:08:17;;;;;;;7.53;2.10;;;;;;;13.18;58.66;100819.63;4920019;29;20047;-67
2021/05/23 06:10:44;;;;;;;6.00;1.90;;;;;;;13.47;58.29;100830.94;4919419;29;20505;-66
2021/05/23 06:13:11;;;;;;;7.03;2.03;;;;;;;13.72;58.04;100839.13;4919471;29;20134;-61
2021/05/23 06:15:38;;;;;;;4.97;1.93;;;;;;;13.93;57.75;100834.16;4919776;29;20056;-59
2021/05/23 06:18:05;;;;;;;4.93;1.90;;;;;;;13.95;57.45;100833.88;4919407;29;20080;-56
2021/05/23 06:20:32;;;;;;;7.33;2.57;;;;;;;14.01;57.35;100820.59;4919494;29;20142;-58
2021/05/23 06:22:59;;;;;;;4.37;1.83;;;;;;;14.23;57.00;100820.94;4917902;29;20080;-59
2021/05/23 06:25:26;;;;;;;7.30;1.70;;;;;;;14.51;56.68;100843.66;4919630;29;20457;-59
2021/05/23 06:27:53;;;;;;;3.57;1.73;;;;;;;14.46;56.44;100814.47;4902371;29;20080;-59
2021/05/23 06:30:20;;;;;;;8.97;2.00;;;;;;;14.89;56.08;100836.97;4919012;29;20084;-59
2021/05/23 06:32:47;;;;;;;9.47;2.03;;;;;;;15.04;55.63;100840.69;4918590;29;20484;-59
2021/05/23 06:35:17;;;;;;;9.00;2.10;;;;;;;15.30;55.27;100844.78;4917817;29;20076;-60
2021/05/23 06:37:47;;;;;;;7.90;2.50;;;;;;;15.54;54.92;100852.31;4918852;29;20087;-59
2021/05/23 06:40:14;;;;;;;9.00;1.77;;;;;;;15.68;54.77;100850.41;4918877;29;20099;-59
2021/05/23 06:42:41;;;;;;;13.90;2.80;;;;;;;15.96;54.28;100856.09;4919045;29;20048;-59
2021/05/23 06:45:09;;;;;;;5.50;1.90;;;;;;;16.15;53.82;100853.25;4918755;29;20096;-60
2021/05/23 06:47:36;;;;;;;6.97;1.97;;;;;;;16.15;53.74;100842.78;4919041;29;20094;-59
2021/05/23 06:50:03;;;;;;;5.97;2.40;;;;;;;16.52;53.36;100857.88;4918888;29;20052;-59
2021/05/23 06:52:30;;;;;;;6.97;1.87;;;;;;;16.49;53.43;100836.75;4919018;29;20131;-60
2021/05/23 06:54:58;;;;;;;7.27;2.23;;;;;;;16.64;52.89;100844.06;4918684;29;20055;-60
2021/05/23 06:57:24;;;;;;;7.50;1.90;;;;;;;16.99;52.51;100867.88;4918728;29;20139;-59
2021/05/23 06:59:52;;;;;;;4.07;2.35;;;;;;;17.07;52.07;100857.00;4918990;29;20048;-60
2021/05/23 07:02:20;;;;;;;7.18;2.03;;;;;;;17.24;51.31;100877.75;4919009;29;20098;-60
2021/05/23 07:04:50;;;;;;;6.72;1.60;;;;;;;17.22;50.73;100849.00;4918461;29;20052;-60
2021/05/23 07:07:20;;;;;;;5.15;1.98;;;;;;;17.42;50.47;100863.78;4919315;29;20071;-60
2021/05/23 07:09:47;;;;;;;8.73;1.95;;;;;;;17.63;49.47;100886.72;4919093;29;20107;-60
2021/05/23 07:12:14;;;;;;;4.35;1.88;;;;;;;17.59;49.72;100854.63;4917194;29;20084;-60
2021/05/23 07:14:41;;;;;;;7.20;2.50;;;;;;;17.88;49.67;100882.44;4918609;29;20084;-60
2021/05/23 07:17:08;;;;;;;12.55;3.55;;;;;;;18.12;49.21;100891.44;4918595;29;20545;-60
2021/05/23 07:19:35;;;;;;;11.48;3.05;;;;;;;18.31;48.66;100893.19;4918497;29;20091;-60
2021/05/23 07:22:02;;;;;;;5.22;2.60;;;;;;;18.29;48.56;100872.88;4918369;29;20052;-60
2021/05/23 07:24:29;;;;;;;5.93;2.22;;;;;;;18.49;48.14;100892.09;4918656;29;20477;-61
2021/05/23 07:26:56;;;;;;;12.95;2.03;;;;;;;18.61;48.03;100900.81;4918624;29;20087;-60
2021/05/23 07:29:23;;;;;;;5.85;2.10;;;;;;;18.63;47.83;100875.88;4918409;29;20464;-60
2021/05/23 07:31:50;;;;;;;5.88;2.50;;;;;;;18.76;47.17;100879.75;4918245;29;20135;-60
2021/05/23 07:34:17;;;;;;;6.35;2.08;;;;;;;18.97;47.24;100899.78;4917277;29;20131;-60
2021/05/23 07:36:44;;;;;;;5.88;1.95;;;;;;;19.08;46.93;100903.16;4918172;29;20516;-60
2021/05/23 07:39:15;;;;;;;8.50;2.50;;;;;;;19.18;46.21;100903.69;4918159;29;20096;-60
2021/05/23 07:41:43;;;;;;;3.15;2.28;;;;;;;19.21;46.00;100892.84;4918337;29;20412;-60
2021/05/23 07:44:10;;;;;;;5.38;2.00;;;;;;;19.31;45.63;100904.69;4918020;29;20096;-60
2021/05/23 07:46:37;;;;;;;5.97;1.50;;;;;;;19.40;45.08;100907.53;4918410;29;20511;-60
2021/05/23 07:49:04;;;;;;;6.75;1.95;;;;;;;19.42;45.16;100903.22;4918168;29;20126;-61
2021/05/23 07:51:31;;;;;;;4.00;1.50;;;;;;;19.50;44.95;100917.72;4917919;29;20048;-60
2021/05/23 07:53:58;;;;;;;10.93;1.88;;;;;;;19.60;44.92;100909.72;4916754;29;20345;-61
2021/05/23 07:56:25;;;;;;;4.32;2.20;;;;;;;19.39;44.75;100864.22;4917879;29;20051;-61
2021/05/23 07:58:52;;;;;;;7.30;2.15;;;;;;;19.79;44.38;100917.06;4917785;29;20126;-61
2021/05/23 08:01:19;;;;;;;3.83;1.90;;;;;;;19.72;44.50;100894.06;4917754;29;20056;-61
2021/05/23 08:03:46;;;;;;;7.15;2.45;;;;;;;19.73;44.48;100884.44;4917735;29;20094;-61
2021/05/23 08:06:13;;;;;;;4.47;2.88;;;;;;;19.68;44.02;100859.91;4917646;29;20136;-61
2021/05/23 08:08:41;;;;;;;4.10;1.60;;;;;;;20.15;43.74;100916.72;4917610;29;20076;-60
2021/05/23 08:11:07;;;;;;;5.10;2.10;;;;;;;20.27;43.38;100918.84;4917262;29;20060;-61
2021/05/23 08:13:34;;;;;;;5.60;1.40;;;;;;;20.38;43.10;100925.00;4916655;29;20077;-60
2021/05/23 08:16:02;;;;;;;5.05;1.65;;;;;;;20.45;42.73;100925.31;4917235;29;20052;-61
2021/05/23 08:18:29;;;;;;;4.20;1.55;;;;;;;20.52;42.38;100935.00;4917237;29;20060;-59
2021/05/23 08:21:00;;;;;;;8.27;1.70;;;;;;;20.63;42.72;100918.44;4917244;29;20052;-59
2021/05/23 08:23:29;;;;;;;3.50;1.40;;;;;;;20.44;42.54;100876.22;4917343;29;20069;-64
2021/05/23 08:25:58;;;;;;;6.25;2.13;;;;;;;20.98;42.33;100941.81;4917178;29;20056;-59
2021/05/23 08:28:26;;;;;;;4.43;1.90;;;;;;;21.03;42.04;100933.13;4917390;29;20409;-63
2021/05/23 08:30:53;;;;;;;3.72;1.15;;;;;;;21.08;41.77;100929.25;4917084;29;20481;-63
2021/05/23 08:33:20;;;;;;;3.30;1.20;;;;;;;21.13;41.40;100931.03;4917262;29;20059;-70
2021/05/23 08:35:47;;;;;;;2.75;1.70;;;;;;;21.37;40.52;100939.81;4917663;29;20055;-61
2021/05/23 08:38:14;;;;;;;2.55;0.98;;;;;;;21.21;40.45;100890.41;4917123;29;20095;-63
2021/05/23 08:40:42;;;;;;;4.22;0.75;;;;;;;21.47;39.99;100930.88;4916760;29;20052;-61
2021/05/23 08:43:10;;;;;;;2.22;0.98;;;;;;;21.32;39.96;100908.69;4916720;29;20509;-61
2021/05/23 08:45:38;;;;;;;4.03;1.30;;;;;;;21.66;39.84;100929.53;4916589;29;20052;-61
2021/05/23 08:48:05;;;;;;;5.38;1.90;;;;;;;21.87;39.49;100938.88;4917004;29;20055;-62
2021/05/23 08:50:32;;;;;;;1.58;0.90;;;;;;;21.93;38.84;100896.88;4916542;29;20056;-62
2021/05/23 08:53:02;;;;;;;2.85;1.00;;;;;;;22.32;38.05;100934.47;4917089;29;20048;-62
2021/05/23 08:55:31;;;;;;;3.55;1.05;;;;;;;22.43;38.13;100927.19;4917024;29;20135;-61
2021/05/23 08:57:59;;;;;;;2.70;0.70;;;;;;;22.54;38.18;100927.56;4916829;29;20056;-61
2021/05/23 09:00:28;;;;;;;5.05;1.60;;;;;;;22.39;37.71;100920.50;4916438;29;20044;-62
2021/05/23 09:03:03;;;;;;;1.67;1.00;;;;;;;22.55;37.50;100917.81;4916804;29;20044;-62
2021/05/23 09:06:02;;;;;;;4.70;1.73;;;;;;;22.77;37.12;100919.38;4916624;29;20052;-63
2021/05/23 09:08:31;;;;;;;2.13;0.98;;;;;;;23.11;36.78;100923.81;4908139;29;20059;-62
2021/05/23 09:11:00;;;;;;;0.75;0.60;;;;;;;23.72;36.18;100920.06;4916539;29;20083;-61
2021/05/23 09:13:33;;;;;;;2.92;1.17;;;;;;;24.22;35.51;100916.66;4916923;29;20056;-63
2021/05/23 09:16:11;;;;;;;4.63;1.27;;;;;;;24.49;35.30;100917.00;4916537;29;20512;-65
2021/05/23 09:18:46;;;;;;;4.70;1.15;;;;;;;24.77;35.45;100919.78;4917003;29;20052;-61
2021/05/23 09:21:17;;;;;;;2.08;0.73;;;;;;;24.99;34.37;100916.28;4916451;29;20083;-61
2021/05/23 09:23:50;;;;;;;1.00;0.70;;;;;;;25.06;34.40;100918.50;4899632;29;20048;-62
2021/05/23 09:26:26;;;;;;;2.40;0.73;;;;;;;25.20;34.17;100918.06;4916501;29;20080;-62
2021/05/23 09:28:54;;;;;;;6.30;0.70;;;;;;;25.46;33.97;100923.13;4916391;29;20048;-62
2021/05/23 09:31:23;;;;;;;1.90;0.77;;;;;;;25.54;33.41;100922.13;4916680;29;20123;-62
2021/05/23 09:33:52;;;;;;;2.35;0.77;;;;;;;25.79;33.45;100916.13;4916235;29;20100;-62
2021/05/23 09:36:20;;;;;;;3.17;0.98;;;;;;;25.68;32.66;100905.28;4899525;29;20422;-62
2021/05/23 09:38:52;;;;;;;3.07;0.97;;;;;;;25.70;33.27;100864.84;4899591;29;20048;-60
2021/05/23 09:41:24;;;;;;;4.93;1.20;;;;;;;26.45;32.20;100912.16;4916722;29;20083;-64
2021/05/23 09:44:28;;;;;;;2.97;1.20;;;;;;;26.75;32.42;100914.38;4916339;29;20090;-61
2021/05/23 09:47:06;;;;;;;3.25;1.08;;;;;;;27.15;31.30;100923.28;4916289;29;20135;-61
2021/05/23 09:49:50;;;;;;;2.53;1.10;;;;;;;27.27;31.65;100907.91;4916290;29;20067;-61
2021/05/23 09:52:29;;;;;;;3.15;1.20;;;;;;;26.96;31.59;100917.59;4916263;29;20153;-61
2021/05/23 09:55:01;;;;;;;2.88;1.27;;;;;;;26.73;31.73;100897.56;4916468;29;20055;-62
2021/05/23 09:57:29;;;;;;;1.83;0.90;;;;;;;26.88;31.35;100901.50;4916238;29;20048;-62
2021/05/23 10:00:06;;;;;;;1.48;0.88;;;;;;;26.68;31.21;100918.75;4916479;29;20052;-62
2021/05/23 10:02:49;;;;;;;2.88;0.93;;;;;;;26.65;31.27;100899.47;4916411;29;20123;-64
2021/05/23 10:05:16;;;;;;;2.33;1.27;;;;;;;27.08;31.15;100902.25;4916185;29;20048;-62
2021/05/23 10:07:43;;;;;;;2.42;1.30;;;;;;;27.26;31.29;100899.69;4916037;29;20048;-63
2021/05/23 10:10:13;;;;;;;6.73;2.20;;;;;;;27.35;31.02;100903.94;4899651;29;20119;-64
2021/05/23 10:12:41;;;;;;;4.15;1.00;;;;;;;27.54;31.58;100907.88;4919468;29;20095;-64
2021/05/23 10:15:10;;;;;;;3.97;1.10;;;;;;;27.55;30.77;100903.78;4919644;29;20044;-64
2021/05/23 10:17:55;;;;;;;3.00;1.10;;;;;;;27.79;30.71;100911.13;4919784;29;20055;-66
2021/05/23 10:20:22;;;;;;;3.65;1.00;;;;;;;28.10;30.15;100904.97;4903053;29;20051;-64
2021/05/23 10:22:49;;;;;;;2.50;0.90;;;;;;;28.22;30.03;100911.66;4919503;29;20103;-63
2021/05/23 10:25:20;;;;;;;2.40;1.30;;;;;;;28.25;29.88;100896.53;4920244;29;20067;-61
2021/05/23 10:27:48;;;;;;;4.13;1.65;;;;;;;27.65;30.61;100883.84;4919588;29;20052;-57
2021/05/23 10:30:16;;;;;;;3.00;0.97;;;;;;;27.18;30.64;100861.50;4919304;29;20557;-61
2021/05/23 10:32:44;;;;;;;4.95;1.60;;;;;;;27.05;31.09;100900.97;4919403;29;20457;-61
2021/05/23 10:35:17;;;;;;;6.13;1.70;;;;;;;26.93;31.32;100895.44;4919567;29;20048;-61
2021/05/23 10:37:47;;;;;;;3.05;1.77;;;;;;;26.74;31.91;100866.91;4919887;29;20052;-61
2021/05/23 10:40:19;;;;;;;5.22;2.20;;;;;;;27.04;31.88;100898.47;4919367;29;20116;-61
2021/05/23 10:42:57;;;;;;;5.03;1.38;;;;;;;27.06;31.77;100899.75;4919124;29;20056;-60
2021/05/23 10:45:38;;;;;;;3.80;1.50;;;;;;;26.63;32.38;100909.66;4919375;29;20355;-60
2021/05/23 10:48:13;;;;;;;5.82;1.63;;;;;;;26.12;32.70;100905.00;4902607;29;20076;-60
2021/05/23 10:50:41;;;;;;;4.05;1.90;;;;;;;25.86;33.92;100902.00;4919032;29;20064;-60
2021/05/23 10:53:08;;;;;;;6.18;1.02;;;;;;;26.05;33.14;100913.44;4919227;29;20112;-61
2021/05/23 10:55:35;;;;;;;6.00;1.98;;;;;;;25.90;33.49;100902.88;4919138;29;20048;-60
2021/05/23 10:58:02;;;;;;;8.05;1.58;;;;;;;25.70;33.32;100897.13;4918668;29;20131;-61
2021/05/23 11:00:35;;;;;;;6.45;1.58;;;;;;;25.73;33.18;100895.56;4901919;29;20060;-60
2021/05/23 11:03:14;;;;;;;2.65;1.23;;;;;;;25.75;33.77;100896.00;4919046;29;20413;-60
2021/05/23 11:05:41;;;;;;;2.55;1.40;;;;;;;25.97;33.21;100915.31;4901643;29;20052;-60
2021/05/23 11:08:12;;;;;;;2.38;1.10;;;;;;;26.41;32.87;100899.81;4918539;29;20056;-60
2021/05/23 11:10:47;;;;;;;2.55;1.00;;;;;;;26.72;32.54;100895.91;4918529;29;20570;-60
2021/05/23 11:13:41;;;;;;;1.85;0.75;;;;;;;26.81;32.93;100893.63;4901621;29;20076;-60
2021/05/23 11:16:14;;;;;;;4.35;1.23;;;;;;;26.92;33.14;100897.47;4917476;29;20052;-61
2021/05/23 11:18:42;;;;;;;1.67;1.00;;;;;;;27.06;32.24;100879.69;4918960;29;20076;-61
2021/05/23 11:21:13;;;;;;;2.60;0.95;;;;;;;27.47;31.18;100899.19;4901746;29;20051;-59
2021/05/23 11:24:07;;;;;;;3.63;1.00;;;;;;;27.47;32.81;100891.41;4919224;29;20071;-59
2021/05/23 11:26:35;;;;;;;2.83;1.23;;;;;;;27.63;31.33;100911.31;4917473;29;20457;-60
2021/05/23 11:29:04;;;;;;;1.98;1.20;;;;;;;27.73;31.20;100907.75;4918384;29;20044;-60
2021/05/23 11:31:34;;;;;;;2.53;1.20;;;;;;;27.80;30.95;100884.09;4918559;29;20087;-60
2021/05/23 11:34:03;;;;;;;5.13;1.38;;;;;;;27.73;31.21;100875.38;4918272;29;20056;-60